createdAt,value
2023-02-13T00:00:51.838Z,6.09
2023-02-13T00:03:19.547Z,6.07
2023-02-13T00:05:45.884Z,6.04
2023-02-13T00:08:12.166Z,6.01
2023-02-13T00:10:38.642Z,5.98
2023-02-13T00:13:04.941Z,5.95
2023-02-13T00:15:31.562Z,5.90
2023-02-13T00:17:57.946Z,5.91
2023-02-13T00:20:25.600Z,5.88
2023-02-13T00:22:51.903Z,5.88
2023-02-13T00:25:18.272Z,5.83
2023-02-13T00:27:44.571Z,5.80
2023-02-13T00:30:11.423Z,5.76
2023-02-13T00:32:37.797Z,5.71
2023-02-13T00:35:04.304Z,5.68
2023-02-13T00:37:33.175Z,5.65
2023-02-13T00:39:59.478Z,5.64
2023-02-13T00:42:25.803Z,5.61
2023-02-13T00:44:52.185Z,5.58
2023-02-13T00:47:18.870Z,5.56
2023-02-13T00:49:45.402Z,5.53
2023-02-13T00:52:11.721Z,5.52
2023-02-13T00:54:39.340Z,5.48
2023-02-13T00:57:05.647Z,5.43
2023-02-13T00:59:31.950Z,5.38
2023-02-13T01:01:58.279Z,5.35
2023-02-13T01:04:24.595Z,5.35
2023-02-13T01:06:50.998Z,5.32
2023-02-13T01:09:17.308Z,5.31
2023-02-13T01:11:44.971Z,5.29
2023-02-13T01:14:11.294Z,5.27
2023-02-13T01:16:37.589Z,5.25
2023-02-13T01:19:04.689Z,5.22
2023-02-13T01:21:31.013Z,5.19
2023-02-13T01:23:57.331Z,5.18
2023-02-13T01:26:24.163Z,5.19
2023-02-13T01:28:53.643Z,5.17
2023-02-13T01:31:20.017Z,5.16
2023-02-13T01:33:46.371Z,5.17
2023-02-13T01:36:13.539Z,5.13
2023-02-13T01:38:40.374Z,5.11
2023-02-13T01:41:06.853Z,5.09
2023-02-13T01:43:46.942Z,5.03
2023-02-13T01:46:16.193Z,5.00
2023-02-13T01:48:42.623Z,4.96
2023-02-13T01:51:11.812Z,4.94
2023-02-13T01:53:39.872Z,4.90
2023-02-13T01:56:10.354Z,4.92
2023-02-13T01:58:39.199Z,4.89
2023-02-13T02:01:06.160Z,4.90
2023-02-13T02:03:35.942Z,4.89
2023-02-13T02:06:02.759Z,4.90
2023-02-13T02:08:29.494Z,4.89
2023-02-13T02:10:58.039Z,4.88
2023-02-13T02:13:26.054Z,4.89
2023-02-13T02:15:52.825Z,4.90
2023-02-13T02:18:20.310Z,4.92
2023-02-13T02:21:02.336Z,4.91
2023-02-13T02:23:56.662Z,4.94
2023-02-13T02:26:47.619Z,4.92
2023-02-13T02:29:40.756Z,4.91
2023-02-13T02:32:15.779Z,4.93
2023-02-13T02:34:49.128Z,4.94
2023-02-13T02:37:22.630Z,4.94
2023-02-13T02:39:55.189Z,4.93
2023-02-13T02:42:28.574Z,4.93
2023-02-13T02:44:58.925Z,4.88
2023-02-13T02:47:27.158Z,4.85
2023-02-13T02:50:01.383Z,4.82
2023-02-13T02:52:31.166Z,4.80
2023-02-13T02:55:02.414Z,4.72
2023-02-13T02:57:31.085Z,4.65
2023-02-13T02:59:57.934Z,4.63
2023-02-13T03:02:24.509Z,4.61
2023-02-13T03:04:53.000Z,4.52
2023-02-13T03:07:20.791Z,4.49
2023-02-13T03:09:48.762Z,4.43
2023-02-13T03:12:17.879Z,4.33
2023-02-13T03:14:44.318Z,4.19
2023-02-13T03:17:11.700Z,4.11
2023-02-13T03:19:43.514Z,4.08
2023-02-13T03:22:14.038Z,4.11
2023-02-13T03:24:46.213Z,4.12
2023-02-13T03:27:17.366Z,4.13
2023-02-13T03:29:46.129Z,4.13
2023-02-13T03:32:18.439Z,4.10
2023-02-13T03:34:49.464Z,4.10
2023-02-13T03:37:17.616Z,4.03
2023-02-13T03:39:47.981Z,4.00
2023-02-13T03:42:18.451Z,4.00
2023-02-13T03:44:48.150Z,3.96
2023-02-13T03:47:14.824Z,3.95
2023-02-13T03:49:43.530Z,3.90
2023-02-13T03:52:15.992Z,3.85
2023-02-13T03:54:44.303Z,3.87
2023-02-13T03:57:15.218Z,3.89
2023-02-13T03:59:41.712Z,3.91
2023-02-13T04:02:11.270Z,3.94
2023-02-13T04:04:43.638Z,3.97
2023-02-13T04:07:11.972Z,3.99
2023-02-13T04:09:40.578Z,3.93
2023-02-13T04:12:14.702Z,3.70
2023-02-13T04:14:47.365Z,3.56
2023-02-13T04:17:15.115Z,3.45
2023-02-13T04:19:41.453Z,3.42
2023-02-13T04:22:07.810Z,3.39
2023-02-13T04:24:34.132Z,3.31
2023-02-13T04:27:00.483Z,3.21
2023-02-13T04:29:26.810Z,3.18
2023-02-13T04:31:54.493Z,3.14
2023-02-13T04:34:20.985Z,3.09
2023-02-13T04:36:47.339Z,3.03
2023-02-13T04:39:13.798Z,3.05
2023-02-13T04:41:40.105Z,3.09
2023-02-13T04:44:06.467Z,3.07
2023-02-13T04:46:32.771Z,3.04
2023-02-13T04:49:00.536Z,3.07
2023-02-13T04:51:27.209Z,3.10
2023-02-13T04:53:53.474Z,3.11
2023-02-13T04:56:20.095Z,3.14
2023-02-13T04:58:46.454Z,3.18
2023-02-13T05:01:13.117Z,3.22
2023-02-13T05:03:39.514Z,3.25
2023-02-13T05:06:07.379Z,3.26
2023-02-13T05:08:34.132Z,3.23
2023-02-13T05:11:00.580Z,3.20
2023-02-13T05:13:27.052Z,3.22
2023-02-13T05:15:53.442Z,3.25
2023-02-13T05:18:19.808Z,3.28
2023-02-13T05:20:46.245Z,3.28
2023-02-13T05:23:14.680Z,3.25
2023-02-13T05:25:41.747Z,3.23
2023-02-13T05:28:08.116Z,3.18
2023-02-13T05:30:34.421Z,3.04
2023-02-13T05:33:00.702Z,2.92
2023-02-13T05:35:26.999Z,2.81
2023-02-13T05:37:53.267Z,2.72
2023-02-13T05:40:22.897Z,2.61
2023-02-13T05:42:49.338Z,2.53
2023-02-13T05:45:15.726Z,2.46
2023-02-13T05:47:42.000Z,2.43
2023-02-13T05:50:08.575Z,2.43
2023-02-13T05:52:34.900Z,2.41
2023-02-13T05:55:01.228Z,2.35
2023-02-13T05:57:28.897Z,2.30
2023-02-13T05:59:55.234Z,2.27
2023-02-13T06:02:21.586Z,2.22
2023-02-13T06:04:47.912Z,2.21
2023-02-13T06:07:14.206Z,2.17
2023-02-13T06:09:40.580Z,2.12
2023-02-13T06:12:06.981Z,2.09
2023-02-13T06:14:34.646Z,2.08
2023-02-13T06:17:01.287Z,2.06
2023-02-13T06:19:27.642Z,2.00
2023-02-13T06:21:53.978Z,1.96
2023-02-13T06:24:20.302Z,1.91
2023-02-13T06:26:46.620Z,1.89
2023-02-13T06:29:12.980Z,1.83
2023-02-13T06:31:40.702Z,1.74
2023-02-13T06:34:07.067Z,1.74
2023-02-13T06:36:33.481Z,1.76
2023-02-13T06:38:59.837Z,1.75
2023-02-13T06:41:26.277Z,1.71
2023-02-13T06:43:52.572Z,1.70
2023-02-13T06:46:18.924Z,1.70
2023-02-13T06:48:46.595Z,1.66
2023-02-13T06:51:12.923Z,1.61
2023-02-13T06:53:39.244Z,1.62
2023-02-13T06:56:05.759Z,1.60
2023-02-13T06:58:32.056Z,1.65
2023-02-13T07:00:58.677Z,1.54
2023-02-13T07:03:25.199Z,1.52
2023-02-13T07:05:52.908Z,1.49
2023-02-13T07:08:19.469Z,1.45
2023-02-13T07:10:45.755Z,1.44
2023-02-13T07:13:12.035Z,1.46
2023-02-13T07:15:38.408Z,1.46
2023-02-13T07:18:05.095Z,1.41
2023-02-13T07:20:31.635Z,1.39
2023-02-13T07:22:59.373Z,1.38
2023-02-13T07:25:26.014Z,1.41
2023-02-13T07:27:52.320Z,1.46
2023-02-13T07:30:18.787Z,1.50
2023-02-13T07:32:45.164Z,1.52
2023-02-13T07:35:11.461Z,1.56
2023-02-13T07:37:37.752Z,1.66
2023-02-13T07:40:06.659Z,1.69
2023-02-13T07:42:33.214Z,1.67
2023-02-13T07:44:59.493Z,1.63
2023-02-13T07:47:25.835Z,1.65
2023-02-13T07:49:52.145Z,1.69
2023-02-13T07:52:18.528Z,1.70
2023-02-13T07:54:44.872Z,1.77
2023-02-13T07:57:12.579Z,1.79
2023-02-13T07:59:38.919Z,1.80
2023-02-13T08:02:05.306Z,1.79
2023-02-13T08:04:31.838Z,1.86
2023-02-13T08:06:58.192Z,1.94
2023-02-13T08:09:24.510Z,1.98
2023-02-13T08:11:52.243Z,1.98
2023-02-13T08:14:20.033Z,2.02
2023-02-13T08:16:46.385Z,2.12
2023-02-13T08:19:12.770Z,2.15
2023-02-13T08:21:39.096Z,2.20
2023-02-13T08:24:05.544Z,2.27
2023-02-13T08:26:31.955Z,2.32
2023-02-13T08:28:58.301Z,2.41
2023-02-13T08:31:26.252Z,2.47
2023-02-13T08:33:52.717Z,2.59
2023-02-13T08:36:19.115Z,2.72
2023-02-13T08:38:46.277Z,2.85
2023-02-13T08:41:12.736Z,2.99
2023-02-13T08:43:39.169Z,3.08
2023-02-13T08:46:05.568Z,3.20
2023-02-13T08:48:33.333Z,3.29
2023-02-13T08:50:59.837Z,3.43
2023-02-13T08:53:26.135Z,3.56
2023-02-13T08:55:53.192Z,3.70
2023-02-13T08:58:19.524Z,3.79
2023-02-13T09:00:45.922Z,3.95
2023-02-13T09:03:12.304Z,4.09
2023-02-13T09:05:40.035Z,4.24
2023-02-13T09:08:06.507Z,4.35
2023-02-13T09:10:33.147Z,4.50
2023-02-13T09:12:59.537Z,4.63
2023-02-13T09:15:25.878Z,4.76
2023-02-13T09:17:52.268Z,4.87
2023-02-13T09:20:18.947Z,4.95
2023-02-13T09:22:46.675Z,5.04
2023-02-13T09:25:13.049Z,5.13
2023-02-13T09:27:39.370Z,5.23
2023-02-13T09:30:06.404Z,5.30
2023-02-13T09:32:32.718Z,5.37
2023-02-13T09:34:59.046Z,5.46
2023-02-13T09:37:25.395Z,5.55
2023-02-13T09:39:53.218Z,5.66
2023-02-13T09:42:21.336Z,5.73
2023-02-13T09:44:48.847Z,5.85
2023-02-13T09:47:17.658Z,5.97
2023-02-13T09:49:46.305Z,6.13
2023-02-13T09:52:12.616Z,6.28
2023-02-13T09:54:38.982Z,6.39
2023-02-13T09:57:11.000Z,6.49
2023-02-13T09:59:42.980Z,6.64
2023-02-13T10:02:20.262Z,6.75
2023-02-13T10:04:49.749Z,6.91
2023-02-13T10:07:21.403Z,7.03
2023-02-13T10:09:51.409Z,7.13
2023-02-13T10:12:25.912Z,7.21
2023-02-13T10:14:58.253Z,7.37
2023-02-13T10:17:27.568Z,7.44
2023-02-13T10:19:55.207Z,7.52
2023-02-13T10:22:23.527Z,7.59
2023-02-13T10:24:51.900Z,7.64
2023-02-13T10:27:21.249Z,7.69
2023-02-13T10:29:51.228Z,7.80
2023-02-13T10:32:19.361Z,7.90
2023-02-13T10:34:46.852Z,7.99
2023-02-13T10:37:14.284Z,8.11
2023-02-13T10:39:41.291Z,8.18
2023-02-13T10:42:11.085Z,8.23
2023-02-13T10:44:44.435Z,8.27
2023-02-13T10:47:18.569Z,8.32
2023-02-13T10:49:51.505Z,8.43
2023-02-13T10:52:22.642Z,8.55
2023-02-13T10:54:57.244Z,8.68
2023-02-13T10:57:28.329Z,8.81
2023-02-13T11:00:05.009Z,8.83
2023-02-13T11:02:33.058Z,8.94
2023-02-13T11:05:00.723Z,9.05
2023-02-13T11:07:27.856Z,9.09
2023-02-13T11:09:58.222Z,9.16
2023-02-13T11:12:25.558Z,9.19
2023-02-13T11:14:54.016Z,9.22
2023-02-13T11:17:20.347Z,9.32
2023-02-13T11:19:49.419Z,9.35
2023-02-13T11:22:26.744Z,9.34
2023-02-13T11:24:55.879Z,9.36
2023-02-13T11:27:23.885Z,9.42
2023-02-13T11:29:54.126Z,9.45
2023-02-13T11:32:21.987Z,9.43
2023-02-13T11:34:49.842Z,9.39
2023-02-13T11:37:17.808Z,9.37
2023-02-13T11:39:45.167Z,9.34
2023-02-13T11:42:13.511Z,9.37
2023-02-13T11:44:41.253Z,9.43
2023-02-13T11:47:07.696Z,9.46
2023-02-13T11:49:35.734Z,9.43
2023-02-13T11:52:05.033Z,9.49
2023-02-13T11:54:33.251Z,9.52
2023-02-13T11:57:05.068Z,9.55
2023-02-13T11:59:33.488Z,9.57
2023-02-13T12:02:04.044Z,9.56
2023-02-13T12:04:30.358Z,9.55
2023-02-13T12:07:01.689Z,9.58
2023-02-13T12:09:30.396Z,9.57
2023-02-13T12:11:57.825Z,9.62
2023-02-13T12:14:25.429Z,9.68
2023-02-13T12:16:54.928Z,9.70
2023-02-13T12:19:24.151Z,9.70
2023-02-13T12:22:02.152Z,9.73
2023-02-13T12:24:38.636Z,9.78
2023-02-13T12:27:12.360Z,9.77
2023-02-13T12:29:52.156Z,9.78
2023-02-13T12:32:19.773Z,9.85
2023-02-13T12:34:54.286Z,9.92
2023-02-13T12:37:27.194Z,9.99
2023-02-13T12:40:02.623Z,10.07
2023-02-13T12:42:37.758Z,10.12
2023-02-13T12:45:11.170Z,10.17
2023-02-13T12:47:39.887Z,10.27
2023-02-13T12:50:15.471Z,10.38
2023-02-13T12:52:50.043Z,10.50
2023-02-13T12:55:34.599Z,10.62
2023-02-13T12:58:08.127Z,10.75
2023-02-13T13:00:40.740Z,10.81
2023-02-13T13:03:24.503Z,10.84
2023-02-13T13:06:08.999Z,10.85
2023-02-13T13:08:46.683Z,10.92
2023-02-13T13:11:19.014Z,10.98
2023-02-13T13:13:52.664Z,11.02
2023-02-13T13:16:24.808Z,11.05
2023-02-13T13:18:56.956Z,11.07
2023-02-13T13:21:28.104Z,11.08
2023-02-13T13:23:57.656Z,11.06
2023-02-13T13:26:30.770Z,11.06
2023-02-13T13:28:58.258Z,11.01
2023-02-13T13:31:26.608Z,10.99
2023-02-13T13:33:55.513Z,10.95
2023-02-13T13:36:25.336Z,10.92
2023-02-13T13:38:56.221Z,10.90
2023-02-13T13:41:28.042Z,10.86
2023-02-13T13:44:02.760Z,10.82
2023-02-13T13:46:36.462Z,10.80
2023-02-13T13:49:10.024Z,10.76
2023-02-13T13:51:36.502Z,10.73
2023-02-13T13:54:21.682Z,10.71
2023-02-13T13:57:06.544Z,10.68
2023-02-13T13:59:51.515Z,10.67
2023-02-13T14:02:40.061Z,10.65
2023-02-13T14:05:17.406Z,10.63
2023-02-13T14:07:44.581Z,10.61
2023-02-13T14:10:22.001Z,10.61
2023-02-13T14:12:48.582Z,10.60
2023-02-13T14:15:33.425Z,10.58
2023-02-13T14:18:01.794Z,10.56
2023-02-13T14:20:38.658Z,10.55
2023-02-13T14:23:17.610Z,10.55
2023-02-13T14:25:44.139Z,10.54
2023-02-13T14:28:18.998Z,10.55
2023-02-13T14:30:45.538Z,10.54
2023-02-13T14:33:24.012Z,10.53
2023-02-13T14:35:59.241Z,10.54
2023-02-13T14:38:25.792Z,10.53
2023-02-13T14:40:53.425Z,10.55
2023-02-13T14:43:31.148Z,10.56
2023-02-13T14:45:59.012Z,10.56
2023-02-13T14:48:34.014Z,10.56
2023-02-13T14:51:00.747Z,10.57
2023-02-13T14:53:29.805Z,10.58
2023-02-13T14:55:57.964Z,10.59
2023-02-13T14:58:25.976Z,10.59
2023-02-13T15:00:55.305Z,10.60
2023-02-13T15:03:24.691Z,10.64
2023-02-13T15:05:53.872Z,10.69
2023-02-13T15:08:21.763Z,10.72
2023-02-13T15:10:48.641Z,10.78
2023-02-13T15:13:15.534Z,11.01
2023-02-13T15:15:42.045Z,11.21
2023-02-13T15:18:10.214Z,11.65
2023-02-13T15:20:37.718Z,12.25
2023-02-13T15:23:06.062Z,12.68
2023-02-13T15:25:34.070Z,12.82
2023-02-13T15:28:02.153Z,13.12
2023-02-13T15:30:29.363Z,13.42
2023-02-13T15:32:57.061Z,13.56
2023-02-13T15:35:26.211Z,13.93
2023-02-13T15:37:52.624Z,14.25
2023-02-13T15:40:27.895Z,14.52
2023-02-13T15:42:55.303Z,14.18
2023-02-13T15:45:22.334Z,13.61
2023-02-13T15:47:49.571Z,13.27
2023-02-13T15:50:21.648Z,13.27
2023-02-13T15:52:48.257Z,13.55
2023-02-13T15:55:18.632Z,13.91
2023-02-13T15:57:46.717Z,14.32
2023-02-13T16:00:18.400Z,14.46
2023-02-13T16:02:46.334Z,14.56
2023-02-13T16:05:13.104Z,14.70
2023-02-13T16:07:49.085Z,14.62
2023-02-13T16:10:15.733Z,13.94
2023-02-13T16:12:46.706Z,13.39
2023-02-13T16:15:15.227Z,12.89
2023-02-13T16:17:43.846Z,12.63
2023-02-13T16:20:18.309Z,12.48
2023-02-13T16:22:46.163Z,12.44
2023-02-13T16:25:18.000Z,12.55
2023-02-13T16:27:47.241Z,12.46
2023-02-13T16:30:23.134Z,12.28
2023-02-13T16:32:49.573Z,11.95
2023-02-13T16:35:17.253Z,11.63
2023-02-13T16:37:49.713Z,11.34
2023-02-13T16:40:35.775Z,11.07
2023-02-13T16:43:20.585Z,10.81
2023-02-13T16:45:48.329Z,10.61
2023-02-13T16:48:15.081Z,10.43
2023-02-13T16:50:42.121Z,10.27
2023-02-13T16:53:08.467Z,10.13
2023-02-13T16:55:34.867Z,10.04
2023-02-13T16:58:01.906Z,9.93
2023-02-13T17:00:28.268Z,9.83
2023-02-13T17:02:55.937Z,9.74
2023-02-13T17:05:23.165Z,9.65
2023-02-13T17:07:50.430Z,9.54
2023-02-13T17:10:21.199Z,9.39
2023-02-13T17:12:48.324Z,9.23
2023-02-13T17:15:16.536Z,9.10
2023-02-13T17:17:43.295Z,8.97
2023-02-13T17:20:17.674Z,8.84
2023-02-13T17:22:45.692Z,8.74
2023-02-13T17:25:15.987Z,8.64
2023-02-13T17:27:42.300Z,8.55
2023-02-13T17:30:12.564Z,8.46
2023-02-13T17:32:38.941Z,8.40
2023-02-13T17:35:05.522Z,8.34
2023-02-13T17:37:33.192Z,8.30
2023-02-13T17:39:59.477Z,8.28
2023-02-13T17:42:26.946Z,8.27
2023-02-13T17:44:54.457Z,8.27
2023-02-13T17:47:21.081Z,8.26
2023-02-13T17:49:47.778Z,8.25
2023-02-13T17:52:15.818Z,8.23
2023-02-13T17:54:43.509Z,8.23
2023-02-13T17:57:10.240Z,8.20
2023-02-13T17:59:36.608Z,8.15
2023-02-13T18:02:02.926Z,8.12
2023-02-13T18:04:29.296Z,8.11
2023-02-13T18:06:55.610Z,8.08
2023-02-13T18:09:21.926Z,8.04
2023-02-13T18:12:04.612Z,7.99
2023-02-13T18:14:32.182Z,7.97
2023-02-13T18:16:58.587Z,7.94
2023-02-13T18:19:24.886Z,7.93
2023-02-13T18:21:51.209Z,7.92
2023-02-13T18:24:17.509Z,7.89
2023-02-13T18:26:43.864Z,7.81
2023-02-13T18:29:11.658Z,7.69
2023-02-13T18:31:38.060Z,7.59
2023-02-13T18:34:04.455Z,7.51
2023-02-13T18:36:30.754Z,7.38
2023-02-13T18:38:57.174Z,7.29
2023-02-13T18:41:23.464Z,7.22
2023-02-13T18:43:49.766Z,7.16
2023-02-13T18:46:17.480Z,7.10
2023-02-13T18:48:43.831Z,7.07
2023-02-13T18:51:10.166Z,7.01
2023-02-13T18:53:36.491Z,6.92
2023-02-13T18:56:04.387Z,6.83
2023-02-13T18:58:30.778Z,6.74
2023-02-13T19:00:57.481Z,6.65
2023-02-13T19:03:25.341Z,6.56
2023-02-13T19:05:51.666Z,6.46
2023-02-13T19:08:18.052Z,6.42
2023-02-13T19:10:44.371Z,6.36
2023-02-13T19:13:10.692Z,6.35
2023-02-13T19:15:37.005Z,6.30
2023-02-13T19:18:03.495Z,6.26
2023-02-13T19:20:31.188Z,6.19
2023-02-13T19:22:57.528Z,6.10
2023-02-13T19:25:23.867Z,6.09
2023-02-13T19:27:50.188Z,6.02
2023-02-13T19:30:16.713Z,5.92
2023-02-13T19:32:43.028Z,5.84
2023-02-13T19:35:09.345Z,5.77
2023-02-13T19:37:43.784Z,5.73
2023-02-13T19:40:11.474Z,5.68
2023-02-13T19:42:40.006Z,5.69
2023-02-13T19:45:06.790Z,5.72
2023-02-13T19:47:33.748Z,5.73
2023-02-13T19:50:00.329Z,5.72
2023-02-13T19:52:26.654Z,5.68
2023-02-13T19:54:54.322Z,5.59
2023-02-13T19:57:20.693Z,5.55
2023-02-13T19:59:47.342Z,5.49
2023-02-13T20:02:14.671Z,5.43
2023-02-13T20:04:40.979Z,5.42
2023-02-13T20:07:07.310Z,5.39
2023-02-13T20:09:33.755Z,5.39
2023-02-13T20:12:01.701Z,5.43
2023-02-13T20:14:28.100Z,5.46
2023-02-13T20:16:54.442Z,5.53
2023-02-13T20:19:21.003Z,5.61
2023-02-13T20:21:47.333Z,5.69
2023-02-13T20:24:13.664Z,5.73
2023-02-13T20:26:39.984Z,5.70
2023-02-13T20:29:08.012Z,5.65
2023-02-13T20:31:34.529Z,5.61
2023-02-13T20:34:00.922Z,5.52
2023-02-13T20:36:28.785Z,5.38
2023-02-13T20:38:56.194Z,5.27
2023-02-13T20:41:23.696Z,5.16
2023-02-13T20:43:50.113Z,5.07
2023-02-13T20:46:18.305Z,4.98
2023-02-13T20:48:45.470Z,4.91
2023-02-13T20:51:12.534Z,4.89
2023-02-13T20:53:39.328Z,4.81
2023-02-13T20:56:06.321Z,4.71
2023-02-13T20:58:32.901Z,4.66
2023-02-13T21:01:00.127Z,4.62
2023-02-13T21:03:28.067Z,4.60
2023-02-13T21:05:54.525Z,4.49
2023-02-13T21:08:20.902Z,4.46
2023-02-13T21:10:47.222Z,4.41
2023-02-13T21:13:13.593Z,4.33
2023-02-13T21:15:39.876Z,4.27
2023-02-13T21:18:06.164Z,4.23
2023-02-13T21:20:33.848Z,4.23
2023-02-13T21:23:00.138Z,4.24
2023-02-13T21:25:26.450Z,4.23
2023-02-13T21:27:52.788Z,4.20
2023-02-13T21:30:19.129Z,4.21
2023-02-13T21:32:45.412Z,4.11
2023-02-13T21:35:11.712Z,4.09
2023-02-13T21:37:39.370Z,4.07
2023-02-13T21:40:06.460Z,4.06
2023-02-13T21:42:32.808Z,4.02
2023-02-13T21:44:59.096Z,3.95
2023-02-13T21:47:25.417Z,3.92
2023-02-13T21:49:51.780Z,3.90
2023-02-13T21:52:18.109Z,3.95
2023-02-13T21:54:45.784Z,3.95
2023-02-13T21:57:12.058Z,3.92
2023-02-13T21:59:38.384Z,3.90
2023-02-13T22:02:04.807Z,3.90
2023-02-13T22:04:31.177Z,3.87
2023-02-13T22:06:57.474Z,3.84
2023-02-13T22:09:23.784Z,3.81
2023-02-13T22:11:52.645Z,3.78
2023-02-13T22:14:19.027Z,3.74
2023-02-13T22:16:45.737Z,3.73
2023-02-13T22:19:12.854Z,3.74
2023-02-13T22:21:39.208Z,3.70
2023-02-13T22:24:06.276Z,3.66
2023-02-13T22:26:33.717Z,3.62
2023-02-13T22:29:02.254Z,3.51
2023-02-13T22:31:28.911Z,3.52
2023-02-13T22:34:03.549Z,3.50
2023-02-13T22:36:30.977Z,3.46
2023-02-13T22:38:57.284Z,3.43
2023-02-13T22:41:24.379Z,3.39
2023-02-13T22:43:51.439Z,3.36
2023-02-13T22:46:20.497Z,3.36
2023-02-13T22:48:47.086Z,3.34
2023-02-13T22:51:14.838Z,3.22
2023-02-13T22:53:41.161Z,3.16
2023-02-13T22:56:08.368Z,3.15
2023-02-13T22:58:34.997Z,3.14
2023-02-13T23:01:01.609Z,3.18
2023-02-13T23:03:30.983Z,3.17
2023-02-13T23:05:57.281Z,3.12
2023-02-13T23:08:23.587Z,3.12
2023-02-13T23:10:50.072Z,3.10
2023-02-13T23:13:16.362Z,3.07
2023-02-13T23:15:42.713Z,3.04
2023-02-13T23:18:10.857Z,3.02
2023-02-13T23:20:38.708Z,2.98
2023-02-13T23:23:05.073Z,2.95
2023-02-13T23:25:31.391Z,2.93
2023-02-13T23:27:57.670Z,2.96
2023-02-13T23:30:24.499Z,2.99
2023-02-13T23:32:51.166Z,3.01
2023-02-13T23:35:17.471Z,3.04
2023-02-13T23:37:45.161Z,3.08
2023-02-13T23:40:12.644Z,3.09
2023-02-13T23:42:39.037Z,3.08
2023-02-13T23:45:05.554Z,3.05
2023-02-13T23:47:31.904Z,3.02
2023-02-13T23:49:58.241Z,2.95
2023-02-13T23:52:24.598Z,2.83
2023-02-13T23:54:52.292Z,2.73
2023-02-13T23:57:18.904Z,2.69
2023-02-13T23:59:45.238Z,2.61
